Nearby METAR Reports

EGQS - RAF Lossiemouth, UK
Distance from station: WNW 12mi, 19km
Updated: 02/08/2021 13:20
Mostly cloudy
Mostly cloudy
 Wind from NNE
Wind: NNE 7 mph , 11 km/h
Temperature: 14°C
Dew Point: 7°C
Humidity: 63%
Barometer: 1014 hPa
Clouds: Mostly cloudy
Visibility: 6 miles , 10 km
Cloud details: Few Clouds 853 m
Mostly cloudy 1158 m
2021/08/02 12:20 EGQS 021220Z 03006KT 9999 FEW028 BKN038 14/07 Q1014 NOSIG RMK BLU BLU
EGQK - RAF Kinloss, UK
Distance from station: WSW 22mi, 36km
Updated: 02/08/2021 12:50
Overcast
Overcast
 Wind from N
Wind: N 8 mph , 13 km/h
Temperature: 14°C
Dew Point: 8°C
Humidity: 67%
Barometer: 1014 hPa
Clouds: Overcast
Visibility: 6 miles , 10 km
Cloud details: Overcast 1097 m
2021/08/02 11:50 EGQK 021150Z AUTO 01007KT 9999 OVC036/// 14/08 Q1014
 
EGPE - Inverness/Dalcross, UK
Distance from station: WSW 39mi, 63km
Updated: 02/08/2021 13:20
Partly cloudy
Partly cloudy
 Wind from ENE
Wind: ENE 5 mph , 7 km/h
Temperature: 15°C
Dew Point: 9°C
Humidity: 68%
Barometer: 1014 hPa
Clouds: Partly cloudy
Visibility: 6 miles , 10 km
Cloud details: Few Clouds 914 m
Partly cloudy 1158 m
2021/08/02 12:20 EGPE 021220Z 07004KT 010V110 9999 FEW030 SCT038 15/09 Q1014
EGPD - Aberdeen/Dyce, UK
Distance from station: SE 44mi, 71km
Updated: 02/08/2021 13:20
Overcast
Overcast
 Wind from ESE
Wind: ESE 8 mph , 13 km/h
Temperature: 14°C
Dew Point: 9°C
Humidity: 72%
Barometer: 1014 hPa
Clouds: Overcast
Visibility: 6 miles , 10 km
Cloud details: Mostly cloudy 732 m
Overcast 1036 m
2021/08/02 12:20 EGPD 021220Z AUTO 11007KT 080V140 9999 BKN024 OVC034 14/09 Q1014